Time;durP1;ratioP1;P1;durP2;ratioP2;P2;SDS_P1;SDS_P2;PMS_P1;PMS_P2;Temp;Humidity;BMP_temperature;BMP_pressure;BME280_temperature;BME280_humidity;BME280_pressure;Samples;Min_cycle;Max_cycle;Signal;HPM_P1;HPM_P2
2024/03/09 00:01:17;;;;;;;;;;;;;;;;;;4974182;28;20656;-70
2024/03/09 00:03:42;;;;;;;;;;;;;;;;;;4965252;28;19918;-70
2024/03/09 00:06:11;;;;;;;;;;;;;;;;;;4967039;28;20019;-71
2024/03/09 00:08:38;;;;;;;;;;;;;;;;;;4973931;28;20036;-70
2024/03/09 00:11:06;;;;;;;;;;;;;;;;;;4974639;28;19922;-71
2024/03/09 00:13:32;;;;;;;;;;;;;;;;;;4980437;28;20016;-71
2024/03/09 00:15:59;;;;;;;;;;;;;;;;;;4969811;28;19927;-72
2024/03/09 00:18:25;;;;;;;;;;;;;;;;;;4964833;28;20399;-71
2024/03/09 00:20:52;;;;;;;;;;;;;;;;;;4965922;28;19922;-70
2024/03/09 00:23:17;;;;;;;;;;;;;;;;;;4965561;28;20565;-72
2024/03/09 00:25:48;;;;;;;;;;;;;;;;;;4972743;28;20012;-72
2024/03/09 00:28:14;;;;;;;;;;;;;;;;;;4974926;28;20444;-73
2024/03/09 00:30:42;;;;;;;;;;;;;;;;;;4981539;28;19922;-71
2024/03/09 00:33:10;;;;;;;;;;;;;;;;;;4981147;28;19922;-71
2024/03/09 00:35:35;;;;;;;;;;;;;;;;;;4976558;28;19989;-74
2024/03/09 00:38:03;;;;;;;;;;;;;;;;;;4973159;28;20095;-70
2024/03/09 00:40:29;;;;;;;;;;;;;;;;;;4980846;28;20005;-71
2024/03/09 00:42:56;;;;;;;;;;;;;;;;;;4974950;28;19989;-72
2024/03/09 00:45:22;;;;;;;;;;;;;;;;;;4975913;28;19928;-70
2024/03/09 00:47:47;;;;;;;;;;;;;;;;;;4990341;28;20013;-71
2024/03/09 00:50:12;;;;;;;;;;;;;;;;;;4967328;28;20574;-74
2024/03/09 00:52:40;;;;;;;;;;;;;;;;;;4978726;28;20355;-72
2024/03/09 00:55:10;;;;;;;;;;;;;;;;;;4975469;28;19933;-71
2024/03/09 00:57:36;;;;;;;;;;;;;;;;;;4978810;28;20021;-74
2024/03/09 01:00:02;;;;;;;;;;;;;;;;;;4965374;28;19975;-69
2024/03/09 01:02:32;;;;;;;;;;;;;;;;;;4971863;28;19922;-72
2024/03/09 01:04:59;;;;;;;;;;;;;;;;;;4979150;28;19922;-78
2024/03/09 01:07:29;;;;;;;;;;;;;;;;;;4970710;28;19917;-72
2024/03/09 01:09:54;;;;;;;;;;;;;;;;;;4971989;28;19928;-68
2024/03/09 01:12:26;;;;;;;;;;;;;;;;;;4965038;28;20405;-71
2024/03/09 01:14:52;;;;;;;;;;;;;;;;;;4981034;28;19925;-74
2024/03/09 01:17:23;;;;;;;;;;;;;;;;;;4970094;28;19926;-73
2024/03/09 01:19:49;;;;;;;;;;;;;;;;;;4979172;28;20446;-72
2024/03/09 01:22:17;;;;;;;;;;;;;;;;;;4944643;28;20069;-71
2024/03/09 01:24:42;;;;;;;;;;;;;;;;;;4977412;28;20277;-73
2024/03/09 01:27:08;;;;;;;;;;;;;;;;;;4972632;28;19917;-73
2024/03/09 01:29:33;;;;;;;;;;;;;;;;;;4973750;28;20272;-72
2024/03/09 01:32:01;;;;;;;;;;;;;;;;;;4981196;28;20368;-71
2024/03/09 01:34:34;;;;;;;;;;;;;;;;;;4964253;28;20337;-72
2024/03/09 01:37:05;;;;;;;;;;;;;;;;;;4970906;28;21919;-74
2024/03/09 01:39:30;;;;;;;;;;;;;;;;;;4973266;28;19929;-71
2024/03/09 01:41:58;;;;;;;;;;;;;;;;;;4978581;28;20523;-75
2024/03/09 01:44:24;;;;;;;;;;;;;;;;;;4974030;28;19928;-73
2024/03/09 01:46:51;;;;;;;;;;;;;;;;;;4974190;28;20349;-72
2024/03/09 01:49:17;;;;;;;;;;;;;;;;;;4975739;28;20573;-75
2024/03/09 01:51:46;;;;;;;;;;;;;;;;;;4955471;28;20311;-72
2024/03/09 01:54:19;;;;;;;;;;;;;;;;;;4978973;28;19925;-70
2024/03/09 01:56:45;;;;;;;;;;;;;;;;;;4982892;28;20036;-70
2024/03/09 01:59:10;;;;;;;;;;;;;;;;;;4984227;28;20386;-71
2024/03/09 02:01:36;;;;;;;;;;;;;;;;;;4979393;28;19953;-72
2024/03/09 02:04:04;;;;;;;;;;;;;;;;;;4984188;28;19938;-71
2024/03/09 02:06:31;;;;;;;;;;;;;;;;;;4973493;28;20543;-69
2024/03/09 02:08:59;;;;;;;;;;;;;;;;;;4976560;28;20025;-72
2024/03/09 02:11:24;;;;;;;;;;;;;;;;;;4974011;28;19991;-72
2024/03/09 02:14:12;;;;;;;;;;;;;;;;;;4965433;28;19924;-75
2024/03/09 02:16:41;;;;;;;;;;;;;;;;;;4980666;28;19935;-72
2024/03/09 02:19:07;;;;;;;;;;;;;;;;;;4956897;28;20616;-74
2024/03/09 02:21:34;;;;;;;;;;;;;;;;;;4976257;28;19924;-71
2024/03/09 02:24:02;;;;;;;;;;;;;;;;;;4974559;28;19949;-70
2024/03/09 02:26:30;;;;;;;;;;;;;;;;;;4975709;28;19917;-73
2024/03/09 02:28:58;;;;;;;;;;;;;;;;;;4975682;28;19932;-77
2024/03/09 02:31:26;;;;;;;;;;;;;;;;;;4984745;28;19922;-76
2024/03/09 02:33:54;;;;;;;;;;;;;;;;;;4977479;28;19925;-69
2024/03/09 02:36:20;;;;;;;;;;;;;;;;;;4973888;28;19928;-74
2024/03/09 02:38:48;;;;;;;;;;;;;;;;;;4975546;28;20263;-73
2024/03/09 02:41:17;;;;;;;;;;;;;;;;;;4980905;28;19922;-71
2024/03/09 02:43:47;;;;;;;;;;;;;;;;;;4982819;28;20055;-72
2024/03/09 02:46:21;;;;;;;;;;;;;;;;;;4973788;28;19981;-70
2024/03/09 02:48:46;;;;;;;;;;;;;;;;;;4987664;28;20036;-71
2024/03/09 02:51:12;;;;;;;;;;;;;;;;;;4969796;28;20350;-71
2024/03/09 02:53:40;;;;;;;;;;;;;;;;;;4975114;28;20654;-73
2024/03/09 02:56:10;;;;;;;;;;;;;;;;;;4975089;28;19929;-74
2024/03/09 02:58:38;;;;;;;;;;;;;;;;;;4981387;28;20089;-70
2024/03/09 03:01:06;;;;;;;;;;;;;;;;;;4982167;28;20005;-75
2024/03/09 03:03:57;;;;;;;;;;;;;;;;;;4982438;28;20377;-73
2024/03/09 03:06:23;;;;;;;;;;;;;;;;;;4968992;28;20001;-76
2024/03/09 03:08:53;;;;;;;;;;;;;;;;;;4974858;28;20634;-72
2024/03/09 03:11:18;;;;;;;;;;;;;;;;;;4976659;28;19918;-69
2024/03/09 03:13:46;;;;;;;;;;;;;;;;;;4975714;28;19928;-72
2024/03/09 03:16:26;;;;;;;;;;;;;;;;;;4974586;28;19948;-71
2024/03/09 03:18:53;;;;;;;;;;;;;;;;;;4970688;28;20339;-70
2024/03/09 03:21:24;;;;;;;;;;;;;;;;;;4975435;28;19914;-72
2024/03/09 03:23:49;;;;;;;;;;;;;;;;;;4966719;28;20340;-72
2024/03/09 03:26:19;;;;;;;;;;;;;;;;;;4982264;28;19926;-72
2024/03/09 03:28:44;;;;;;;;;;;;;;;;;;4975069;28;19964;-71
2024/03/09 03:31:11;;;;;;;;;;;;;;;;;;4974241;28;20350;-73
2024/03/09 03:33:39;;;;;;;;;;;;;;;;;;4974381;28;19922;-73
2024/03/09 03:36:07;;;;;;;;;;;;;;;;;;4974265;28;19926;-73
2024/03/09 03:38:34;;;;;;;;;;;;;;;;;;4974496;28;19925;-73
2024/03/09 03:41:00;;;;;;;;;;;;;;;;;;4973310;28;20409;-72
2024/03/09 03:43:28;;;;;;;;;;;;;;;;;;4974607;28;19953;-72
2024/03/09 03:45:53;;;;;;;;;;;;;;;;;;4975524;28;20376;-72
2024/03/09 03:48:21;;;;;;;;;;;;;;;;;;4982142;28;19949;-70
2024/03/09 03:50:49;;;;;;;;;;;;;;;;;;4966859;28;20012;-71
2024/03/09 03:53:14;;;;;;;;;;;;;;;;;;4981147;28;19918;-73
2024/03/09 03:55:40;;;;;;;;;;;;;;;;;;4971252;28;19978;-73
2024/03/09 03:58:09;;;;;;;;;;;;;;;;;;4958182;28;20037;-74
2024/03/09 04:00:34;;;;;;;;;;;;;;;;;;4975697;28;20015;-68
2024/03/09 04:03:02;;;;;;;;;;;;;;;;;;4974544;28;19918;-74
2024/03/09 04:05:29;;;;;;;;;;;;;;;;;;4980675;28;20290;-72
2024/03/09 04:07:54;;;;;;;;;;;;;;;;;;4978343;28;19976;-68
2024/03/09 04:10:22;;;;;;;;;;;;;;;;;;4981706;28;19918;-71
2024/03/09 04:12:47;;;;;;;;;;;;;;;;;;4973233;28;19925;-72
2024/03/09 04:18:07;;;;;;;;;;;;;;;;;;4971767;28;19921;-72
2024/03/09 04:20:35;;;;;;;;;;;;;;;;;;4969236;28;19922;-77
2024/03/09 04:23:04;;;;;;;;;;;;;;;;;;4980007;28;21553;-72
2024/03/09 04:25:29;;;;;;;;;;;;;;;;;;4974822;28;19921;-74
2024/03/09 04:27:55;;;;;;;;;;;;;;;;;;4963564;28;20325;-72
2024/03/09 04:30:23;;;;;;;;;;;;;;;;;;4981242;28;20008;-73
2024/03/09 04:32:48;;;;;;;;;;;;;;;;;;4972369;28;19928;-72
2024/03/09 04:38:32;;;;;;;;;;;;;;;;;;4973457;28;19978;-70
2024/03/09 04:44:11;;;;;;;;;;;;;;;;;;4955827;28;19926;-72
2024/03/09 04:46:39;;;;;;;;;;;;;;;;;;4952008;28;19917;-71
2024/03/09 04:49:07;;;;;;;;;;;;;;;;;;4928995;28;20381;-71
2024/03/09 04:51:33;;;;;;;;;;;;;;;;;;4953480;28;20456;-72
2024/03/09 04:54:00;;;;;;;;;;;;;;;;;;4961790;28;19921;-72
2024/03/09 04:56:29;;;;;;;;;;;;;;;;;;4952812;28;20325;-73
2024/03/09 04:58:54;;;;;;;;;;;;;;;;;;4954385;28;20469;-73
2024/03/09 05:01:20;;;;;;;;;;;;;;;;;;4954239;28;19928;-72
2024/03/09 05:03:53;;;;;;;;;;;;;;;;;;4955255;28;19918;-71
2024/03/09 05:06:21;;;;;;;;;;;;;;;;;;4952215;28;19929;-70
2024/03/09 05:08:48;;;;;;;;;;;;;;;;;;4961198;28;20418;-73
2024/03/09 05:11:15;;;;;;;;;;;;;;;;;;4950807;28;21408;-74
2024/03/09 05:13:42;;;;;;;;;;;;;;;;;;4954296;28;19921;-75
2024/03/09 05:16:10;;;;;;;;;;;;;;;;;;4947849;28;20363;-74
2024/03/09 05:18:36;;;;;;;;;;;;;;;;;;4948537;28;19936;-75
2024/03/09 05:21:03;;;;;;;;;;;;;;;;;;4926003;28;19917;-73
2024/03/09 05:23:31;;;;;;;;;;;;;;;;;;4939314;28;19925;-73
2024/03/09 05:25:56;;;;;;;;;;;;;;;;;;4938670;28;20309;-71
2024/03/09 05:28:21;;;;;;;;;;;;;;;;;;4932367;28;19922;-75
2024/03/09 05:30:47;;;;;;;;;;;;;;;;;;4971159;28;20011;-74
2024/03/09 05:33:13;;;;;;;;;;;;;;;;;;4956045;28;19922;-71
2024/03/09 05:35:39;;;;;;;;;;;;;;;;;;4945129;28;19929;-74
2024/03/09 05:38:04;;;;;;;;;;;;;;;;;;4961300;28;20058;-76
2024/03/09 05:40:29;;;;;;;;;;;;;;;;;;4957270;28;19921;-73
2024/03/09 05:42:55;;;;;;;;;;;;;;;;;;4966104;28;20315;-74
2024/03/09 05:45:23;;;;;;;;;;;;;;;;;;4971425;28;19968;-74
2024/03/09 05:47:50;;;;;;;;;;;;;;;;;;4980135;28;20012;-73
2024/03/09 05:50:15;;;;;;;;;;;;;;;;;;4972442;28;20625;-73
2024/03/09 05:52:44;;;;;;;;;;;;;;;;;;4980781;28;20503;-74
2024/03/09 05:55:09;;;;;;;;;;;;;;;;;;4974469;28;19922;-74
2024/03/09 05:57:34;;;;;;;;;;;;;;;;;;4972092;28;20396;-73
2024/03/09 06:00:02;;;;;;;;;;;;;;;;;;4982673;28;19921;-74
2024/03/09 06:02:32;;;;;;;;;;;;;;;;;;4975775;28;19951;-74
2024/03/09 06:05:00;;;;;;;;;;;;;;;;;;4976709;28;19918;-72
2024/03/09 06:07:26;;;;;;;;;;;;;;;;;;4975769;28;20452;-73
2024/03/09 06:09:54;;;;;;;;;;;;;;;;;;4983614;28;19940;-74
2024/03/09 06:12:22;;;;;;;;;;;;;;;;;;4975382;28;21061;-73
2024/03/09 06:14:47;;;;;;;;;;;;;;;;;;4984273;28;19917;-74
2024/03/09 06:17:15;;;;;;;;;;;;;;;;;;4983168;28;19922;-75
2024/03/09 06:19:40;;;;;;;;;;;;;;;;;;4976753;28;20328;-75
2024/03/09 06:22:09;;;;;;;;;;;;;;;;;;4964206;28;19948;-77
2024/03/09 06:24:34;;;;;;;;;;;;;;;;;;4975687;28;19945;-77
2024/03/09 06:30:17;;;;;;;;;;;;;;;;;;4978146;28;20012;-77
2024/03/09 06:32:49;;;;;;;;;;;;;;;;;;4964735;28;19981;-71
2024/03/09 06:35:14;;;;;;;;;;;;;;;;;;4981977;28;20046;-70
2024/03/09 06:37:40;;;;;;;;;;;;;;;;;;4977199;28;20559;-74
2024/03/09 06:40:05;;;;;;;;;;;;;;;;;;4974089;28;19969;-75
2024/03/09 06:42:30;;;;;;;;;;;;;;;;;;4975742;28;19918;-77
2024/03/09 06:44:56;;;;;;;;;;;;;;;;;;4976195;28;19922;-76
2024/03/09 06:47:21;;;;;;;;;;;;;;;;;;4962772;28;20000;-73
2024/03/09 06:49:49;;;;;;;;;;;;;;;;;;4982591;28;20019;-71
2024/03/09 06:52:15;;;;;;;;;;;;;;;;;;4977111;28;19918;-74
2024/03/09 06:54:40;;;;;;;;;;;;;;;;;;4981007;28;19924;-75
2024/03/09 06:57:05;;;;;;;;;;;;;;;;;;4969108;28;19930;-73
2024/03/09 06:59:32;;;;;;;;;;;;;;;;;;4979105;28;20364;-74
2024/03/09 07:02:01;;;;;;;;;;;;;;;;;;4978712;28;19922;-71
2024/03/09 07:04:27;;;;;;;;;;;;;;;;;;4972879;28;19940;-73
2024/03/09 07:06:56;;;;;;;;;;;;;;;;;;4982579;28;19918;-73
2024/03/09 07:09:22;;;;;;;;;;;;;;;;;;4979026;28;20287;-74
2024/03/09 07:11:50;;;;;;;;;;;;;;;;;;4976122;28;20044;-74
2024/03/09 07:14:18;;;;;;;;;;;;;;;;;;4979606;28;19929;-76
2024/03/09 07:16:46;;;;;;;;;;;;;;;;;;4984772;28;20011;-76
2024/03/09 07:19:13;;;;;;;;;;;;;;;;;;4960479;28;20321;-71
2024/03/09 07:21:41;;;;;;;;;;;;;;;;;;4974170;28;19979;-73
2024/03/09 07:24:07;;;;;;;;;;;;;;;;;;4977735;28;20385;-72
2024/03/09 07:26:32;;;;;;;;;;;;;;;;;;4975244;28;19941;-70
2024/03/09 07:28:58;;;;;;;;;;;;;;;;;;4990905;28;19922;-72
2024/03/09 07:31:27;;;;;;;;;;;;;;;;;;4978756;28;19914;-73
2024/03/09 07:33:53;;;;;;;;;;;;;;;;;;4974149;28;19922;-70
2024/03/09 07:36:20;;;;;;;;;;;;;;;;;;4980908;28;19972;-72
2024/03/09 07:38:50;;;;;;;;;;;;;;;;;;4952453;28;20684;-72
2024/03/09 07:41:25;;;;;;;;;;;;;;;;;;4965027;28;19932;-69
2024/03/09 07:43:51;;;;;;;;;;;;;;;;;;4972093;28;20028;-72
2024/03/09 07:46:19;;;;;;;;;;;;;;;;;;4967171;28;19926;-71
2024/03/09 07:48:45;;;;;;;;;;;;;;;;;;4966436;28;19949;-72
2024/03/09 07:51:14;;;;;;;;;;;;;;;;;;4973525;28;19923;-72
2024/03/09 07:53:44;;;;;;;;;;;;;;;;;;4974781;28;20661;-71
2024/03/09 07:56:12;;;;;;;;;;;;;;;;;;4974449;28;20012;-73
2024/03/09 07:58:40;;;;;;;;;;;;;;;;;;4957925;28;20064;-72
2024/03/09 08:01:08;;;;;;;;;;;;;;;;;;4975021;28;19924;-70
2024/03/09 08:03:36;;;;;;;;;;;;;;;;;;4974872;28;19929;-69
2024/03/09 08:06:02;;;;;;;;;;;;;;;;;;4974289;28;19921;-69
2024/03/09 08:08:27;;;;;;;;;;;;;;;;;;4977138;28;19933;-68
2024/03/09 08:10:53;;;;;;;;;;;;;;;;;;4980527;28;19950;-69
2024/03/09 08:13:24;;;;;;;;;;;;;;;;;;4976748;28;19924;-73
2024/03/09 08:15:52;;;;;;;;;;;;;;;;;;4980493;28;20386;-72
2024/03/09 08:21:34;;;;;;;;;;;;;;;;;;4973852;28;20639;-71
2024/03/09 08:24:04;;;;;;;;;;;;;;;;;;4978950;28;20793;-69
2024/03/09 08:26:31;;;;;;;;;;;;;;;;;;4973818;28;19929;-71
2024/03/09 08:28:56;;;;;;;;;;;;;;;;;;4955916;28;19922;-70
2024/03/09 08:31:24;;;;;;;;;;;;;;;;;;4972220;28;19928;-69
2024/03/09 08:33:50;;;;;;;;;;;;;;;;;;4956319;28;20001;-67
2024/03/09 08:36:20;;;;;;;;;;;;;;;;;;4971180;28;19944;-68
2024/03/09 08:38:48;;;;;;;;;;;;;;;;;;4972444;28;19948;-70
2024/03/09 08:41:16;;;;;;;;;;;;;;;;;;4972550;28;19918;-69
2024/03/09 08:43:51;;;;;;;;;;;;;;;;;;4971911;28;19926;-69
2024/03/09 08:46:17;;;;;;;;;;;;;;;;;;4973906;28;20391;-68
2024/03/09 08:48:44;;;;;;;;;;;;;;;;;;4976336;28;19929;-69
2024/03/09 08:51:09;;;;;;;;;;;;;;;;;;4962296;28;20176;-69
2024/03/09 08:53:35;;;;;;;;;;;;;;;;;;4971879;28;19934;-69
2024/03/09 08:56:00;;;;;;;;;;;;;;;;;;4966504;28;19917;-71
2024/03/09 08:58:26;;;;;;;;;;;;;;;;;;4977042;28;20288;-67
2024/03/09 09:00:53;;;;;;;;;;;;;;;;;;4977914;28;19980;-70
2024/03/09 09:03:20;;;;;;;;;;;;;;;;;;4992748;28;19921;-69
2024/03/09 09:05:45;;;;;;;;;;;;;;;;;;4982562;28;19929;-68
2024/03/09 09:08:24;;;;;;;;;;;;;;;;;;4981755;28;19927;-69
2024/03/09 09:10:55;;;;;;;;;;;;;;;;;;4976598;28;20375;-68
2024/03/09 09:13:23;;;;;;;;;;;;;;;;;;4970742;28;19918;-75
2024/03/09 09:15:52;;;;;;;;;;;;;;;;;;4983647;28;19924;-74
2024/03/09 09:18:19;;;;;;;;;;;;;;;;;;4983446;28;20351;-68
2024/03/09 09:20:48;;;;;;;;;;;;;;;;;;4973608;28;20391;-68
2024/03/09 09:23:16;;;;;;;;;;;;;;;;;;4976257;28;21555;-69
2024/03/09 09:25:44;;;;;;;;;;;;;;;;;;4983149;28;19930;-66
2024/03/09 09:28:16;;;;;;;;;;;;;;;;;;4983656;28;20003;-69
2024/03/09 09:30:44;;;;;;;;;;;;;;;;;;4972931;28;20012;-71
2024/03/09 09:36:29;;;;;;;;;;;;;;;;;;4975904;28;19932;-65
2024/03/09 09:38:55;;;;;;;;;;;;;;;;;;4976120;28;19929;-67
2024/03/09 09:41:20;;;;;;;;;;;;;;;;;;4983598;28;19918;-75
2024/03/09 09:43:45;;;;;;;;;;;;;;;;;;4973656;28;19925;-69
2024/03/09 09:46:13;;;;;;;;;;;;;;;;;;4972121;28;19913;-68
2024/03/09 09:48:38;;;;;;;;;;;;;;;;;;4967645;28;19928;-67
2024/03/09 09:54:21;;;;;;;;;;;;;;;;;;4977001;28;19939;-68
2024/03/09 09:56:49;;;;;;;;;;;;;;;;;;4975848;28;19922;-67
2024/03/09 09:59:17;;;;;;;;;;;;;;;;;;4975810;28;19930;-67
2024/03/09 10:01:46;;;;;;;;;;;;;;;;;;4976727;28;19913;-67
2024/03/09 10:04:17;;;;;;;;;;;;;;;;;;4982966;28;19918;-67
2024/03/09 10:06:42;;;;;;;;;;;;;;;;;;4981349;28;20004;-66
2024/03/09 10:09:07;;;;;;;;;;;;;;;;;;4981058;28;19918;-66
2024/03/09 10:11:33;;;;;;;;;;;;;;;;;;4974211;28;19918;-66
2024/03/09 10:14:01;;;;;;;;;;;;;;;;;;4979221;28;20021;-66
2024/03/09 10:16:48;;;;;;;;;;;;;;;;;;4982463;28;19922;-70
2024/03/09 10:19:12;;;;;;;;;;;;;;;;;;4988411;28;20438;-68
2024/03/09 10:21:38;;;;;;;;;;;;;;;;;;4974362;28;20037;-66
2024/03/09 10:24:06;;;;;;;;;;;;;;;;;;4973701;28;19921;-66
2024/03/09 10:26:34;;;;;;;;;;;;;;;;;;4974193;28;19921;-66
2024/03/09 10:29:03;;;;;;;;;;;;;;;;;;4975784;28;19918;-66
2024/03/09 10:31:30;;;;;;;;;;;;;;;;;;4981735;28;20016;-66
2024/03/09 10:33:55;;;;;;;;;;;;;;;;;;4976397;28;19928;-69
2024/03/09 10:36:23;;;;;;;;;;;;;;;;;;4974257;28;19918;-66
2024/03/09 10:41:39;;;;;;;;;;;;;;;;;;4961431;28;20403;-67
2024/03/09 10:44:07;;;;;;;;;;;;;;;;;;4978699;28;19926;-66
2024/03/09 10:46:35;;;;;;;;;;;;;;;;;;4966990;28;19929;-66
2024/03/09 10:49:00;;;;;;;;;;;;;;;;;;4981814;28;19922;-66
2024/03/09 10:51:28;;;;;;;;;;;;;;;;;;4972242;28;21071;-67
2024/03/09 10:53:53;;;;;;;;;;;;;;;;;;4981435;28;19915;-66
2024/03/09 10:56:19;;;;;;;;;;;;;;;;;;4971289;28;20365;-67
2024/03/09 10:58:50;;;;;;;;;;;;;;;;;;4980670;28;19937;-68
2024/03/09 11:01:17;;;;;;;;;;;;;;;;;;4973440;28;19924;-67
2024/03/09 11:03:45;;;;;;;;;;;;;;;;;;4973612;28;19925;-66
2024/03/09 11:06:11;;;;;;;;;;;;;;;;;;4976988;28;20213;-68
2024/03/09 11:08:39;;;;;;;;;;;;;;;;;;4978584;28;20053;-68
2024/03/09 11:11:22;;;;;;;;;;;;;;;;;;4976505;28;19917;-67
2024/03/09 11:13:50;;;;;;;;;;;;;;;;;;4981216;28;19929;-64
2024/03/09 11:16:19;;;;;;;;;;;;;;;;;;4980124;28;19957;-67
2024/03/09 11:18:45;;;;;;;;;;;;;;;;;;4980634;28;19996;-66
2024/03/09 11:21:13;;;;;;;;;;;;;;;;;;4979734;28;20285;-67
2024/03/09 11:23:44;;;;;;;;;;;;;;;;;;4980349;28;19922;-66
2024/03/09 11:26:12;;;;;;;;;;;;;;;;;;4972732;28;19922;-66
2024/03/09 11:28:40;;;;;;;;;;;;;;;;;;4963777;28;19921;-66
2024/03/09 11:31:14;;;;;;;;;;;;;;;;;;4973327;28;19956;-68
2024/03/09 11:33:39;;;;;;;;;;;;;;;;;;4984153;28;20366;-72
2024/03/09 11:36:10;;;;;;;;;;;;;;;;;;4965233;28;19949;-68
2024/03/09 11:38:35;;;;;;;;;;;;;;;;;;4973836;28;19929;-67
2024/03/09 11:41:04;;;;;;;;;;;;;;;;;;4966378;28;19924;-66
2024/03/09 11:43:34;;;;;;;;;;;;;;;;;;4979787;28;19922;-66
2024/03/09 11:46:02;;;;;;;;;;;;;;;;;;4978489;28;20021;-65
2024/03/09 11:48:27;;;;;;;;;;;;;;;;;;4966044;28;20028;-67
2024/03/09 11:50:53;;;;;;;;;;;;;;;;;;4972335;28;20397;-67
2024/03/09 11:53:18;;;;;;;;;;;;;;;;;;4975422;28;19914;-67
2024/03/09 11:55:46;;;;;;;;;;;;;;;;;;4971464;28;19918;-67
2024/03/09 11:58:15;;;;;;;;;;;;;;;;;;4975287;28;19933;-68
2024/03/09 12:00:41;;;;;;;;;;;;;;;;;;4954922;28;19918;-70
2024/03/09 12:03:09;;;;;;;;;;;;;;;;;;4949829;28;21489;-66
2024/03/09 12:05:37;;;;;;;;;;;;;;;;;;4973351;28;19929;-67
2024/03/09 12:08:02;;;;;;;;;;;;;;;;;;4977314;28;19982;-67
2024/03/09 12:10:28;;;;;;;;;;;;;;;;;;4974858;28;19922;-67
2024/03/09 12:13:01;;;;;;;;;;;;;;;;;;4981485;28;20020;-68
2024/03/09 12:15:29;;;;;;;;;;;;;;;;;;4972257;28;19929;-69
2024/03/09 12:17:54;;;;;;;;;;;;;;;;;;4979191;28;19933;-66
2024/03/09 12:20:19;;;;;;;;;;;;;;;;;;4972204;28;19918;-67
2024/03/09 12:22:44;;;;;;;;;;;;;;;;;;4974242;28;19918;-71
2024/03/09 12:25:10;;;;;;;;;;;;;;;;;;4973472;28;19929;-66
2024/03/09 12:27:38;;;;;;;;;;;;;;;;;;4971594;28;20037;-67
2024/03/09 12:30:09;;;;;;;;;;;;;;;;;;4981057;28;19956;-66
2024/03/09 12:32:34;;;;;;;;;;;;;;;;;;4972338;28;20015;-67
2024/03/09 12:35:00;;;;;;;;;;;;;;;;;;4973899;28;19922;-66
2024/03/09 12:37:26;;;;;;;;;;;;;;;;;;4979890;28;19972;-67
2024/03/09 12:39:52;;;;;;;;;;;;;;;;;;4977697;28;20360;-68
2024/03/09 12:42:18;;;;;;;;;;;;;;;;;;4974235;28;20012;-68
2024/03/09 12:44:46;;;;;;;;;;;;;;;;;;4948999;28;19961;-68
2024/03/09 12:47:16;;;;;;;;;;;;;;;;;;4970883;28;19980;-68
2024/03/09 12:49:44;;;;;;;;;;;;;;;;;;4970955;28;19960;-69
2024/03/09 12:52:12;;;;;;;;;;;;;;;;;;4977561;28;20436;-68
2024/03/09 12:54:41;;;;;;;;;;;;;;;;;;4966240;28;20085;-67
2024/03/09 12:57:07;;;;;;;;;;;;;;;;;;4973069;28;20287;-68
2024/03/09 12:59:36;;;;;;;;;;;;;;;;;;4971475;28;19930;-67
2024/03/09 13:02:05;;;;;;;;;;;;;;;;;;4961445;28;19945;-66
2024/03/09 13:04:30;;;;;;;;;;;;;;;;;;4970699;28;19922;-67
2024/03/09 13:06:55;;;;;;;;;;;;;;;;;;4960134;28;19940;-66
2024/03/09 13:09:21;;;;;;;;;;;;;;;;;;4971105;28;20413;-67
2024/03/09 13:11:46;;;;;;;;;;;;;;;;;;4978442;28;19921;-68
2024/03/09 13:14:12;;;;;;;;;;;;;;;;;;4974117;28;19932;-68
2024/03/09 13:16:45;;;;;;;;;;;;;;;;;;4969445;28;19994;-69
2024/03/09 13:19:20;;;;;;;;;;;;;;;;;;4972959;28;20012;-69
2024/03/09 13:21:51;;;;;;;;;;;;;;;;;;4971701;28;19918;-70
2024/03/09 13:24:21;;;;;;;;;;;;;;;;;;4973512;28;19921;-76
2024/03/09 13:26:47;;;;;;;;;;;;;;;;;;4963702;28;20729;-71
2024/03/09 13:29:13;;;;;;;;;;;;;;;;;;4972604;28;19922;-68
2024/03/09 13:31:38;;;;;;;;;;;;;;;;;;4980044;28;19922;-66
2024/03/09 13:34:07;;;;;;;;;;;;;;;;;;4972773;28;19948;-66
2024/03/09 13:36:36;;;;;;;;;;;;;;;;;;4971525;28;19922;-66
2024/03/09 13:39:11;;;;;;;;;;;;;;;;;;4979127;28;20314;-67
2024/03/09 13:41:40;;;;;;;;;;;;;;;;;;4972191;28;19922;-66
2024/03/09 13:44:06;;;;;;;;;;;;;;;;;;4975311;28;19939;-67
2024/03/09 13:46:34;;;;;;;;;;;;;;;;;;4975058;28;19921;-67
2024/03/09 13:49:10;;;;;;;;;;;;;;;;;;4975411;28;20494;-65
2024/03/09 13:51:35;;;;;;;;;;;;;;;;;;4975038;28;19917;-72
2024/03/09 13:54:01;;;;;;;;;;;;;;;;;;4972658;28;19980;-67
2024/03/09 13:56:28;;;;;;;;;;;;;;;;;;4983113;28;19921;-72
2024/03/09 13:58:53;;;;;;;;;;;;;;;;;;4973391;28;20251;-70
2024/03/09 14:01:21;;;;;;;;;;;;;;;;;;4972615;28;19930;-66
2024/03/09 14:03:47;;;;;;;;;;;;;;;;;;4982479;28;19928;-65
2024/03/09 14:06:15;;;;;;;;;;;;;;;;;;4978585;28;19961;-68
2024/03/09 14:08:40;;;;;;;;;;;;;;;;;;4977640;28;21681;-68
2024/03/09 14:11:16;;;;;;;;;;;;;;;;;;4969340;28;19922;-66
2024/03/09 14:13:49;;;;;;;;;;;;;;;;;;4964453;28;19921;-67
2024/03/09 14:16:18;;;;;;;;;;;;;;;;;;4967261;28;19921;-68
2024/03/09 14:18:49;;;;;;;;;;;;;;;;;;4974327;28;20463;-67
2024/03/09 14:21:17;;;;;;;;;;;;;;;;;;4973955;28;19921;-67
2024/03/09 14:23:46;;;;;;;;;;;;;;;;;;4966832;28;20429;-68
2024/03/09 14:26:14;;;;;;;;;;;;;;;;;;4982139;28;19921;-68
2024/03/09 14:28:39;;;;;;;;;;;;;;;;;;4976007;28;19953;-68
2024/03/09 14:31:15;;;;;;;;;;;;;;;;;;4965691;28;20012;-66
2024/03/09 14:33:45;;;;;;;;;;;;;;;;;;4980751;28;20032;-67
2024/03/09 14:36:21;;;;;;;;;;;;;;;;;;4980992;28;20247;-68
2024/03/09 14:38:46;;;;;;;;;;;;;;;;;;4975168;28;19922;-67
2024/03/09 14:41:12;;;;;;;;;;;;;;;;;;4982699;28;19922;-72
2024/03/09 14:43:46;;;;;;;;;;;;;;;;;;4966346;28;20424;-66
2024/03/09 14:46:14;;;;;;;;;;;;;;;;;;4979736;28;20588;-68
2024/03/09 14:48:44;;;;;;;;;;;;;;;;;;4966942;28;19957;-70
2024/03/09 14:51:11;;;;;;;;;;;;;;;;;;4981111;28;19925;-73
2024/03/09 14:53:39;;;;;;;;;;;;;;;;;;4972422;28;21448;-66
2024/03/09 14:56:07;;;;;;;;;;;;;;;;;;4981579;28;19969;-68
2024/03/09 14:58:40;;;;;;;;;;;;;;;;;;4974967;28;20238;-68
2024/03/09 15:01:08;;;;;;;;;;;;;;;;;;4974062;28;20270;-69
2024/03/09 15:03:34;;;;;;;;;;;;;;;;;;4952550;28;20516;-70
2024/03/09 15:06:01;;;;;;;;;;;;;;;;;;4979180;28;20080;-67
2024/03/09 15:08:27;;;;;;;;;;;;;;;;;;4979044;28;20376;-67
2024/03/09 15:10:57;;;;;;;;;;;;;;;;;;4975197;28;19928;-68
2024/03/09 15:13:37;;;;;;;;;;;;;;;;;;4977018;28;20356;-67
2024/03/09 15:16:05;;;;;;;;;;;;;;;;;;4979915;28;20679;-68
2024/03/09 15:18:31;;;;;;;;;;;;;;;;;;4973816;28;19926;-67
2024/03/09 15:20:58;;;;;;;;;;;;;;;;;;4980939;28;19922;-76
2024/03/09 15:23:26;;;;;;;;;;;;;;;;;;4964733;28;19969;-67
2024/03/09 15:25:52;;;;;;;;;;;;;;;;;;4971916;28;20472;-67
2024/03/09 15:28:17;;;;;;;;;;;;;;;;;;4981299;28;19921;-67
2024/03/09 15:30:49;;;;;;;;;;;;;;;;;;4975483;28;19932;-68
2024/03/09 15:33:17;;;;;;;;;;;;;;;;;;4974885;28;19932;-67
2024/03/09 15:35:42;;;;;;;;;;;;;;;;;;4971053;28;19925;-72
2024/03/09 15:38:08;;;;;;;;;;;;;;;;;;4973499;28;19925;-69
2024/03/09 15:40:37;;;;;;;;;;;;;;;;;;4973794;28;19922;-67
2024/03/09 15:43:05;;;;;;;;;;;;;;;;;;4975176;28;19997;-69
2024/03/09 15:45:33;;;;;;;;;;;;;;;;;;4980992;28;20285;-67
2024/03/09 15:47:59;;;;;;;;;;;;;;;;;;4973523;28;19928;-68
2024/03/09 15:50:27;;;;;;;;;;;;;;;;;;4973291;28;19917;-74
2024/03/09 15:52:53;;;;;;;;;;;;;;;;;;4963833;28;19928;-68
2024/03/09 15:55:18;;;;;;;;;;;;;;;;;;4979848;28;19918;-67
2024/03/09 15:57:44;;;;;;;;;;;;;;;;;;4972446;28;20441;-67
2024/03/09 16:00:13;;;;;;;;;;;;;;;;;;4981004;28;19960;-68
2024/03/09 16:02:41;;;;;;;;;;;;;;;;;;4972271;28;19918;-68
2024/03/09 16:05:10;;;;;;;;;;;;;;;;;;4973440;28;19914;-69
2024/03/09 16:07:38;;;;;;;;;;;;;;;;;;4971388;28;20411;-68
2024/03/09 16:10:04;;;;;;;;;;;;;;;;;;4972721;28;20059;-74
2024/03/09 16:12:33;;;;;;;;;;;;;;;;;;4974443;28;19983;-68
2024/03/09 16:14:58;;;;;;;;;;;;;;;;;;4971774;28;20399;-71
2024/03/09 16:17:23;;;;;;;;;;;;;;;;;;4972781;28;19965;-68
2024/03/09 16:19:56;;;;;;;;;;;;;;;;;;4976865;28;19962;-71
2024/03/09 16:22:22;;;;;;;;;;;;;;;;;;4971942;28;19921;-72
2024/03/09 16:24:47;;;;;;;;;;;;;;;;;;4965178;28;19924;-71
2024/03/09 16:27:13;;;;;;;;;;;;;;;;;;4980770;28;20304;-69
2024/03/09 16:29:41;;;;;;;;;;;;;;;;;;4973760;28;19949;-71
2024/03/09 16:32:14;;;;;;;;;;;;;;;;;;4956831;28;20344;-69
2024/03/09 16:34:42;;;;;;;;;;;;;;;;;;4971402;28;20027;-71
2024/03/09 16:37:07;;;;;;;;;;;;;;;;;;4960939;28;20465;-68
2024/03/09 16:39:33;;;;;;;;;;;;;;;;;;4978448;28;20230;-68
2024/03/09 16:42:00;;;;;;;;;;;;;;;;;;4973029;28;20499;-68
2024/03/09 16:44:25;;;;;;;;;;;;;;;;;;4974107;28;19964;-68
2024/03/09 16:46:53;;;;;;;;;;;;;;;;;;4971999;28;19917;-69
2024/03/09 16:49:26;;;;;;;;;;;;;;;;;;4980164;28;20008;-76
2024/03/09 16:51:51;;;;;;;;;;;;;;;;;;4977821;28;19922;-69
2024/03/09 16:54:19;;;;;;;;;;;;;;;;;;4964788;28;19944;-69
2024/03/09 16:56:46;;;;;;;;;;;;;;;;;;4972083;28;20666;-69
2024/03/09 16:59:11;;;;;;;;;;;;;;;;;;4971990;28;19929;-70
2024/03/09 17:01:42;;;;;;;;;;;;;;;;;;4972136;28;19944;-67
2024/03/09 17:04:11;;;;;;;;;;;;;;;;;;4966336;28;19923;-71
2024/03/09 17:06:37;;;;;;;;;;;;;;;;;;4970633;28;19922;-69
2024/03/09 17:09:10;;;;;;;;;;;;;;;;;;4965576;28;19951;-71
2024/03/09 17:11:35;;;;;;;;;;;;;;;;;;4971797;28;20086;-69
2024/03/09 17:14:06;;;;;;;;;;;;;;;;;;4979604;28;19918;-69